This is the latest recevied weather packets stored in our database for station/object NK0Z-13. If no packets are shown the sender has not sent any weather packets the latest 10 day(s).
| Time | Temp. | Humidity | Pressure | Rain* | Wind** | Luminosity | Snow |
|---|---|---|---|---|---|---|---|
| 1777910086 | 24.44° C | 41% | 1006 hPa | 0 mm | - | 658 W/m² | - |
| 1777909486 | 23.89° C | 44% | 1005.8 hPa | 0 mm | - | 627 W/m² | - |
| 1777908882 | 22.78° C | 44% | 1006 hPa | 0 mm | - | 597 W/m² | - |
| 1777908282 | 22.78° C | 46% | 1006 hPa | 0 mm | - | 565 W/m² | - |
| 1777907680 | 22.78° C | 45% | 1006 hPa | 0 mm | - | 536 W/m² | - |
| 1777907077 | 22.78° C | 45% | 1005.8 hPa | 0 mm | - | 514 W/m² | - |
| 1777906478 | 22.22° C | 47% | 1005.9 hPa | 0 mm | - | 481 W/m² | - |
| 1777905877 | 21.67° C | 47% | 1005.9 hPa | 0 mm | - | 450 W/m² | - |
| 1777905277 | 21.11° C | 48% | 1005.9 hPa | 0 mm | - | 421 W/m² | - |
| 1777904671 | 20.56° C | 55% | 1005.8 hPa | 0 mm | - | 384 W/m² | - |
| 1777904070 | 19.44° C | 56% | 1006 hPa | 0 mm | - | 298 W/m² | - |
| 1777903470 | 18.89° C | 57% | 1006 hPa | 0 mm | - | 141 W/m² | - |
| 1777902868 | 17.78° C | 60% | 1005.9 hPa | 0 mm | - | 214 W/m² | - |
| 1777902268 | 17.78° C | 61% | 1006 hPa | 0 mm | - | 133 W/m² | - |
| 1777901664 | 17.78° C | 60% | 1006.1 hPa | 0 mm | - | 143 W/m² | - |
| 1777901064 | 16.67° C | 65% | 1006 hPa | 0 mm | - | 183 W/m² | - |
| 1777900464 | 16.67° C | 63% | 1005.9 hPa | 0 mm | - | 94 W/m² | - |
| 1777899863 | 16.67° C | 64% | 1006.1 hPa | 0 mm | - | 152 W/m² | - |
| 1777899264 | 15.56° C | 66% | 1006.1 hPa | 0 mm | - | 124 W/m² | - |
| 1777898658 | 15° C | 67% | 1006 hPa | 0 mm | - | 101 W/m² | - |
| 1777898053 | 13.89° C | 69% | 1006 hPa | 0 mm | - | 80 W/m² | - |
| 1777897451 | 13.33° C | 71% | 1006 hPa | 0 mm | - | 61 W/m² | - |
| 1777896849 | 12.22° C | 74% | 1005.9 hPa | 0 mm | - | 44 W/m² | - |
| 1777896249 | 12.78° C | 72% | 1006 hPa | 0 mm | - | 24 W/m² | - |
| 1777895645 | 12.78° C | 71% | 1005.6 hPa | 0 mm | - | 17 W/m² | - |
* Rain latest hour (hover to see other rain measurements)
** Current wind speed in m/s (hover to see current wind gust speed)